LGW weather

London Gatwick Airport
London, England, United Kingdom

Public forecast

Using degrees Celsius for public forecast. Weather courtesy of forecast.io.

Current aviation weather report (METAR) for London Gatwick Airport

Retrieved 2019/10/23 01:20 UTC (0 seconds ago):

EGKK 230120Z 06003KT 1500 R08R/0450 BR BCFG NSC 03/03 Q1020

Aviation forecast (TAF) for London Gatwick Airport

Retrieved 2019-10-23 00:00 UTC (1 hour ago):

TAF EGKK 222302Z 2300/2406 15003KT 8000 FEW040 TEMPO 2300/2307 3000 MIFG BR PROB40 2300/2306 0300 FG VV/// PROB30 TEMPO 2307/2317 -RA BKN010 BECMG 2309/2312 9999 TEMPO 2317/2324 7000 -RA BKN005 PROB30 TEMPO 2320/2324 3000 -RADZ BR BKN003 TEMPO 2400/2406 2000 -RADZ BR BKN002